createdAt,value
2023-02-16T00:03:00.305Z,1007.65
2023-02-16T00:08:00.577Z,1007.52
2023-02-16T00:12:59.977Z,1007.53
2023-02-16T00:17:59.914Z,1007.47
2023-02-16T04:31:37.472Z,1007.42
2023-02-16T04:36:36.818Z,1007.42
2023-02-16T04:41:36.805Z,1007.40
2023-02-16T04:46:36.791Z,1007.32
2023-02-16T04:51:36.675Z,1007.23
2023-02-16T04:56:36.564Z,1007.21
2023-02-16T05:01:36.567Z,1007.18
2023-02-16T05:06:36.700Z,1007.18
2023-02-16T05:11:36.399Z,1007.20
2023-02-16T05:16:36.252Z,1007.15
2023-02-16T05:21:39.397Z,1007.22
2023-02-16T05:26:36.229Z,1007.23
2023-02-16T05:31:36.528Z,1007.16
2023-02-16T05:36:36.034Z,1007.17
2023-02-16T05:41:36.319Z,1007.13
2023-02-16T05:46:35.957Z,1007.12
2023-02-16T05:51:43.433Z,1007.19
2023-02-16T05:56:35.796Z,1007.24
2023-02-16T06:01:35.796Z,1007.28
2023-02-16T06:06:35.747Z,1007.31
2023-02-16T06:11:35.850Z,1007.18
2023-02-16T06:16:35.524Z,1007.25
2023-02-16T06:25:57.649Z,1007.29
2023-02-16T06:32:46.727Z,1007.27
2023-02-16T06:37:46.664Z,1007.26
2023-02-16T06:42:46.754Z,1007.13
2023-02-16T06:47:46.578Z,1007.21
2023-02-16T06:52:46.583Z,1007.31
2023-02-16T06:57:46.394Z,1007.09
2023-02-16T07:02:46.650Z,1007.19
2023-02-16T07:07:46.236Z,1007.13
2023-02-16T07:12:46.285Z,1007.04
2023-02-16T07:17:46.100Z,1007.01
2023-02-16T07:22:49.100Z,1006.94
2023-02-16T07:27:46.206Z,1006.80
2023-02-16T07:32:46.129Z,1006.82
2023-02-16T07:37:45.970Z,1006.93
2023-02-16T07:42:45.817Z,1006.86
2023-02-16T07:47:45.805Z,1006.87
2023-02-16T07:52:46.086Z,1006.91
2023-02-16T07:57:56.113Z,1006.88
2023-02-16T08:02:46.456Z,1006.91
2023-02-16T08:13:04.644Z,1006.94
2023-02-16T08:18:17.420Z,1006.99
2023-02-16T08:23:03.465Z,1006.99
2023-02-16T08:28:03.295Z,1006.97
2023-02-16T08:33:03.242Z,1006.93
2023-02-16T08:38:04.568Z,1006.97
2023-02-16T08:43:03.180Z,1006.97
2023-02-16T08:48:03.228Z,1007.03
2023-02-16T08:53:03.093Z,1007.04
2023-02-16T08:58:02.948Z,1007.02
2023-02-16T09:03:05.891Z,1007.00
2023-02-16T09:08:03.262Z,1007.04
2023-02-16T09:13:02.793Z,1007.10
2023-02-16T09:18:02.700Z,1007.04
2023-02-16T09:23:02.554Z,1007.03
2023-02-16T09:28:02.561Z,1007.07
2023-02-16T09:33:02.871Z,1006.99
2023-02-16T09:38:02.829Z,1007.00
2023-02-16T09:43:02.372Z,1006.92
2023-02-16T09:48:02.465Z,1006.83
2023-02-16T09:53:02.306Z,1006.75
2023-02-16T09:58:02.044Z,1006.67
2023-02-16T10:03:05.250Z,1006.67
2023-02-16T10:08:01.969Z,1006.67
2023-02-16T10:13:01.958Z,1006.56
2023-02-16T10:18:01.887Z,1006.58
2023-02-16T10:23:01.773Z,1006.59
2023-02-16T10:28:01.902Z,1006.58
2023-02-16T10:33:01.815Z,1006.55
2023-02-16T10:38:01.628Z,1006.47
2023-02-16T10:43:01.566Z,1006.39
2023-02-16T10:48:01.846Z,1006.40
2023-02-16T10:53:01.607Z,1006.31
2023-02-16T10:59:29.702Z,1006.30
2023-02-16T11:04:29.558Z,1006.22
2023-02-16T11:09:29.452Z,1006.07
2023-02-16T11:14:29.172Z,1005.92
2023-02-16T11:19:29.299Z,1005.86
2023-02-16T11:24:29.256Z,1005.80
2023-02-16T11:30:55.861Z,1005.79
2023-02-16T11:37:58.238Z,1005.74
2023-02-16T11:42:58.274Z,1005.68
2023-02-16T11:47:58.110Z,1005.67
2023-02-16T11:52:57.970Z,1005.58
2023-02-16T11:57:58.138Z,1005.42
2023-02-16T12:02:57.943Z,1005.43
2023-02-16T12:07:57.905Z,1005.36
2023-02-16T12:14:26.289Z,1005.32
2023-02-16T12:19:26.612Z,1005.24
2023-02-16T12:24:26.189Z,1005.18
2023-02-16T12:29:25.955Z,1005.11
2023-02-16T12:34:26.045Z,1005.08
2023-02-16T12:39:25.800Z,1005.09
2023-02-16T12:44:25.860Z,1005.05
2023-02-16T12:49:25.803Z,1004.92
2023-02-16T12:54:25.728Z,1004.99
2023-02-16T12:59:25.665Z,1004.97
2023-02-16T13:04:28.545Z,1004.91
2023-02-16T13:09:25.506Z,1004.98
2023-02-16T13:14:25.390Z,1004.95
2023-02-16T13:19:25.350Z,1004.77
2023-02-16T13:24:26.093Z,1004.80
2023-02-16T13:29:25.430Z,1004.79
2023-02-16T13:34:25.171Z,1004.82
2023-02-16T13:39:24.992Z,1004.85
2023-02-16T13:44:25.918Z,1004.87
2023-02-16T13:49:24.996Z,1004.84
2023-02-16T13:54:25.084Z,1004.79
2023-02-16T13:59:24.854Z,1004.80
2023-02-16T14:04:27.915Z,1004.80
2023-02-16T14:09:24.768Z,1004.79
2023-02-16T14:14:24.692Z,1004.73
2023-02-16T14:19:24.479Z,1004.75
2023-02-16T14:24:24.552Z,1004.77
2023-02-16T14:29:24.473Z,1004.79
2023-02-16T14:34:24.426Z,1004.74
2023-02-16T14:39:24.336Z,1004.82
2023-02-16T14:44:24.301Z,1004.78
2023-02-16T14:49:24.213Z,1004.83
2023-02-16T14:54:24.105Z,1004.85
2023-02-16T14:59:23.966Z,1004.92
2023-02-16T15:05:44.626Z,1004.89
2023-02-16T15:10:44.501Z,1004.86
2023-02-16T15:15:44.497Z,1004.76
2023-02-16T15:20:44.458Z,1004.79
2023-02-16T15:25:44.328Z,1004.68
2023-02-16T15:30:44.152Z,1004.54
2023-02-16T15:35:44.354Z,1004.55
2023-02-16T15:40:44.159Z,1004.48
2023-02-16T15:45:44.120Z,1004.41
2023-02-16T15:50:43.941Z,1004.41
2023-02-16T15:55:54.708Z,1004.44
2023-02-16T16:00:51.407Z,1004.49
2023-02-16T16:05:43.826Z,1004.53
2023-02-16T16:10:43.719Z,1004.51
2023-02-16T16:15:43.720Z,1004.50
2023-02-16T16:20:43.579Z,1004.54
2023-02-16T16:25:43.716Z,1004.62
2023-02-16T16:34:06.721Z,1004.56
2023-02-16T16:39:04.932Z,1004.47
2023-02-16T16:44:12.557Z,1004.55
2023-02-16T16:49:04.677Z,1004.62
2023-02-16T16:54:04.581Z,1004.58
2023-02-16T16:59:04.490Z,1004.64
2023-02-16T17:04:04.607Z,1004.67
2023-02-16T17:09:04.614Z,1004.80
2023-02-16T17:14:04.397Z,1004.83
2023-02-16T17:35:38.986Z,1005.13
2023-02-16T17:40:47.918Z,1005.15
2023-02-16T17:45:38.896Z,1005.20
2023-02-16T17:50:39.034Z,1005.23
2023-02-16T18:03:30.964Z,1005.20
2023-02-16T18:25:07.235Z,1005.26
2023-02-16T18:35:03.087Z,1005.28
2023-02-16T18:40:03.093Z,1005.16
2023-02-16T18:45:03.112Z,1005.17
2023-02-16T18:50:02.885Z,1005.18
2023-02-16T18:55:03.108Z,1005.17
2023-02-16T19:00:02.819Z,1005.18
2023-02-16T19:05:02.856Z,1005.23
2023-02-16T19:10:02.614Z,1005.20
2023-02-16T19:15:02.625Z,1005.13
2023-02-16T19:20:02.584Z,1005.11
2023-02-16T19:25:12.975Z,1005.08
2023-02-16T19:30:02.745Z,1004.97
2023-02-16T19:35:02.870Z,1004.92
2023-02-16T19:40:02.362Z,1004.82
2023-02-16T20:06:08.706Z,1004.79
2023-02-16T20:11:08.626Z,1004.76
2023-02-16T20:16:08.969Z,1004.78
2023-02-16T20:21:08.700Z,1004.78
2023-02-16T20:48:58.577Z,1004.54
2023-02-16T20:53:57.286Z,1004.48
2023-02-16T20:58:57.535Z,1004.46
2023-02-16T21:04:02.358Z,1004.43
2023-02-16T21:08:58.001Z,1004.36
2023-02-16T21:13:57.382Z,1004.28
2023-02-16T21:21:07.175Z,1004.20
2023-02-16T21:26:07.423Z,1004.16
2023-02-16T21:31:07.151Z,1004.07
2023-02-16T21:36:07.251Z,1004.05
2023-02-16T21:41:06.858Z,1004.06
2023-02-16T21:46:07.217Z,1004.04
2023-02-16T21:51:06.731Z,1003.92
2023-02-16T21:56:07.224Z,1003.87
2023-02-16T22:01:06.725Z,1003.90
2023-02-16T22:06:06.920Z,1003.86
2023-02-16T22:11:10.628Z,1003.82
2023-02-16T22:16:14.063Z,1003.76
2023-02-16T22:21:06.404Z,1003.80
2023-02-16T22:26:06.734Z,1003.82
2023-02-16T22:31:06.213Z,1003.77
2023-02-16T22:36:06.494Z,1003.69
2023-02-16T22:41:06.202Z,1003.64
2023-02-16T22:46:06.532Z,1003.59
2023-02-16T22:51:06.088Z,1003.61
2023-02-16T23:10:02.886Z,1003.31
2023-02-16T23:15:02.910Z,1003.23
2023-02-16T23:20:02.960Z,1003.23
2023-02-16T23:25:02.810Z,1003.22
2023-02-16T23:30:02.710Z,1003.22
2023-02-16T23:35:02.645Z,1003.21
2023-02-16T23:40:02.532Z,1003.24
2023-02-16T23:45:02.498Z,1003.07
2023-02-16T23:50:02.534Z,1003.02
2023-02-16T23:55:02.344Z,1002.95
